Time;durP1;ratioP1;P1;durP2;ratioP2;P2;SDS_P1;SDS_P2;PMS_P1;PMS_P2;Temp;Humidity;BMP_temperature;BMP_pressure;BME280_temperature;BME280_humidity;BME280_pressure;Samples;Min_cycle;Max_cycle;Signal;HPM_P1;HPM_P2
2022/04/16 00:00:56;;;;;;;5.53;3.78;;;4.80;99.90;;;;;;4972094;28;20030;-59
2022/04/16 00:03:22;;;;;;;5.07;3.38;;;4.70;99.90;;;;;;4970224;28;20043;-57
2022/04/16 00:05:53;;;;;;;4.75;3.95;;;4.70;99.90;;;;;;4971956;28;20657;-59
2022/04/16 00:08:22;;;;;;;6.65;4.57;;;4.70;99.90;;;;;;4971831;28;20121;-56
2022/04/16 00:10:48;;;;;;;6.00;3.50;;;4.70;99.90;;;;;;4971632;28;20530;-57
2022/04/16 00:13:14;;;;;;;6.00;3.83;;;4.60;99.90;;;;;;4970481;28;20042;-58
2022/04/16 00:15:40;;;;;;;7.07;4.43;;;4.60;99.90;;;;;;4971592;28;20037;-60
2022/04/16 00:18:06;;;;;;;6.47;3.85;;;4.50;99.90;;;;;;4971507;28;20034;-58
2022/04/16 00:20:33;;;;;;;5.80;3.90;;;4.50;99.90;;;;;;4971377;28;20030;-57
2022/04/16 00:22:58;;;;;;;4.85;3.35;;;4.50;99.90;;;;;;4971319;28;20214;-58
2022/04/16 00:25:24;;;;;;;4.90;3.67;;;4.50;99.90;;;;;;4971512;28;20035;-55
2022/04/16 00:27:49;;;;;;;6.43;3.22;;;4.40;99.90;;;;;;4971498;28;20042;-59
2022/04/16 00:30:17;;;;;;;5.30;3.78;;;4.40;99.90;;;;;;4971658;28;20465;-57
2022/04/16 00:32:45;;;;;;;4.07;3.25;;;4.30;99.90;;;;;;5011121;23;20053;-54
2022/04/16 00:35:13;;;;;;;6.35;3.03;;;4.30;99.90;;;;;;5007132;28;20586;-56
2022/04/16 00:37:39;;;;;;;4.00;3.25;;;4.20;99.90;;;;;;5010085;28;20029;-53
2022/04/16 00:40:06;;;;;;;6.05;3.55;;;4.20;99.90;;;;;;5010056;28;20451;-53
2022/04/16 00:42:45;;;;;;;6.10;2.78;;;4.20;99.90;;;;;;5009609;28;20498;-54
2022/04/16 00:45:12;;;;;;;7.30;3.58;;;4.10;99.90;;;;;;5009865;28;20026;-54
2022/04/16 00:47:37;;;;;;;4.40;3.17;;;4.10;99.90;;;;;;5009794;28;20107;-52
2022/04/16 01:13:37;;;;;;;4.32;3.00;;;3.70;99.90;;;;;;5005225;28;20121;-55
2022/04/16 01:16:05;;;;;;;3.40;2.88;;;3.70;99.90;;;;;;5009618;28;20109;-54
2022/04/16 01:18:31;;;;;;;3.72;2.55;;;3.60;99.90;;;;;;5009228;28;20449;-53
2022/04/16 01:20:57;;;;;;;3.33;2.60;;;3.60;99.90;;;;;;5009547;28;20561;-51
2022/04/16 01:23:22;;;;;;;3.78;2.95;;;3.60;99.90;;;;;;5009312;28;20030;-56
2022/04/16 01:25:48;;;;;;;5.10;3.00;;;3.50;99.90;;;;;;5008971;28;20045;-51
2022/04/16 01:28:13;;;;;;;4.80;2.50;;;3.50;99.90;;;;;;5009290;28;20030;-56
2022/04/16 01:30:39;;;;;;;3.42;2.40;;;3.50;99.90;;;;;;5008986;28;20519;-53
2022/04/16 01:33:05;;;;;;;2.97;2.35;;;3.40;99.90;;;;;;5009796;28;20044;-55
2022/04/16 01:35:31;;;;;;;3.88;2.60;;;3.40;99.90;;;;;;5008993;28;20436;-51
2022/04/16 01:37:57;;;;;;;5.10;3.08;;;3.40;99.90;;;;;;5009648;28;20113;-52
2022/04/16 01:40:25;;;;;;;3.67;2.58;;;3.40;99.90;;;;;;5009585;28;20030;-51
2022/04/16 01:42:56;;;;;;;5.80;3.15;;;3.30;99.90;;;;;;5009168;28;20030;-53
2022/04/16 01:45:23;;;;;;;3.28;2.65;;;3.30;99.90;;;;;;5010033;28;20014;-54
2022/04/16 01:47:50;;;;;;;4.50;2.80;;;3.30;99.90;;;;;;5009855;28;20036;-55
2022/04/16 01:50:16;;;;;;;3.75;2.63;;;3.20;99.90;;;;;;5008314;28;20030;-53
2022/04/16 01:52:42;;;;;;;4.38;2.40;;;3.20;99.90;;;;;;5009066;28;20038;-51
2022/04/16 01:55:09;;;;;;;3.05;2.10;;;3.20;99.90;;;;;;5009231;28;20017;-50
2022/04/16 01:57:35;;;;;;;3.20;2.42;;;3.20;99.90;;;;;;5008290;28;20057;-50
2022/04/16 02:00:03;;;;;;;4.47;2.75;;;3.20;99.90;;;;;;5009400;28;20144;-53
2022/04/16 02:02:29;;;;;;;4.65;2.35;;;3.20;99.90;;;;;;5008991;28;20128;-51
2022/04/16 02:04:54;;;;;;;3.60;2.53;;;3.10;99.90;;;;;;5009210;28;20034;-51
2022/04/16 02:07:20;;;;;;;4.40;2.80;;;3.10;99.90;;;;;;5009192;28;20036;-55
2022/04/16 02:09:45;;;;;;;3.50;2.40;;;3.10;99.90;;;;;;5009345;28;20405;-53
2022/04/16 02:12:13;;;;;;;4.20;1.90;;;3.10;99.90;;;;;;5007638;28;20036;-53
2022/04/16 02:14:38;;;;;;;6.25;2.25;;;3.00;99.90;;;;;;5009404;28;20121;-55
2022/04/16 02:17:04;;;;;;;3.38;2.20;;;3.00;99.90;;;;;;5009154;28;20532;-54
2022/04/16 02:19:30;;;;;;;2.20;1.92;;;3.00;99.90;;;;;;5008995;28;20121;-51
2022/04/16 02:21:55;;;;;;;2.53;2.25;;;2.90;99.90;;;;;;5008755;28;20101;-52
2022/04/16 02:24:21;;;;;;;3.17;2.20;;;2.90;99.90;;;;;;5009308;28;20030;-52
2022/04/16 02:26:46;;;;;;;4.32;2.30;;;2.80;99.90;;;;;;5008832;28;20467;-54
2022/04/16 02:29:13;;;;;;;2.78;2.08;;;2.80;99.90;;;;;;5009320;28;20033;-50
2022/04/16 02:31:39;;;;;;;3.25;2.10;;;2.80;99.90;;;;;;5008764;28;20113;-53
2022/04/16 02:34:07;;;;;;;3.97;2.00;;;2.80;99.90;;;;;;5008671;28;20110;-54
2022/04/16 02:36:36;;;;;;;2.20;1.85;;;2.80;99.90;;;;;;5009824;28;20465;-50
2022/04/16 02:39:02;;;;;;;3.75;1.88;;;2.80;99.90;;;;;;5012620;28;20026;-51
2022/04/16 02:41:28;;;;;;;5.03;2.25;;;2.80;99.90;;;;;;5011475;28;20064;-50
2022/04/16 02:43:54;;;;;;;2.80;1.55;;;2.70;99.90;;;;;;5008772;28;20054;-52
2022/04/16 02:49:05;;;;;;;2.17;1.80;;;2.70;99.90;;;;;;5012539;28;20044;-53
2022/04/16 02:51:31;;;;;;;5.32;2.03;;;2.60;99.90;;;;;;5012045;28;20029;-50
2022/04/16 02:53:57;;;;;;;4.93;2.42;;;2.60;99.90;;;;;;5012475;28;20520;-55
2022/04/16 02:56:23;;;;;;;4.18;2.20;;;2.50;99.90;;;;;;5012079;28;20034;-55
2022/04/16 02:58:48;;;;;;;4.55;2.40;;;2.50;99.90;;;;;;5012154;28;20621;-54
2022/04/16 03:01:15;;;;;;;2.60;2.20;;;2.40;99.90;;;;;;5011746;28;20049;-51
2022/04/16 03:03:41;;;;;;;2.20;1.98;;;2.40;99.90;;;;;;5012329;28;20034;-51
2022/04/16 03:06:06;;;;;;;2.55;2.10;;;2.30;99.90;;;;;;5012153;28;20030;-54
2022/04/16 03:08:32;;;;;;;4.57;2.50;;;2.30;99.90;;;;;;5012071;28;20511;-54
2022/04/16 03:10:58;;;;;;;5.28;2.13;;;2.20;99.90;;;;;;5011645;28;20405;-53
2022/04/16 03:13:23;;;;;;;4.10;2.40;;;2.20;99.90;;;;;;5011544;28;20109;-54
2022/04/16 03:18:33;;;;;;;3.50;2.35;;;2.10;99.90;;;;;;5011851;28;20701;-51
2022/04/16 03:20:59;;;;;;;3.88;2.47;;;2.00;99.90;;;;;;5011795;28;20113;-53
2022/04/16 03:23:25;;;;;;;3.78;2.40;;;2.00;99.90;;;;;;5011439;28;20083;-51
2022/04/16 03:25:53;;;;;;;3.78;2.58;;;2.00;99.90;;;;;;5011781;28;20041;-50
2022/04/16 03:28:19;;;;;;;2.75;1.98;;;2.00;99.90;;;;;;5011413;28;20030;-56
2022/04/16 03:30:45;;;;;;;5.10;2.30;;;1.90;99.90;;;;;;5011744;28;20456;-54
2022/04/16 03:33:11;;;;;;;4.07;2.30;;;1.90;99.90;;;;;;5011013;28;20099;-53
2022/04/16 03:35:37;;;;;;;3.22;2.10;;;1.90;99.90;;;;;;5011279;28;20514;-52
2022/04/16 03:38:03;;;;;;;2.88;2.40;;;1.90;99.90;;;;;;5011583;28;20030;-53
2022/04/16 03:40:28;;;;;;;4.25;2.33;;;1.80;99.90;;;;;;5011612;28;20419;-54
2022/04/16 03:42:58;;;;;;;3.67;2.47;;;1.80;99.90;;;;;;5011238;28;20033;-53
2022/04/16 03:45:31;;;;;;;5.43;2.40;;;1.90;99.90;;;;;;5011403;28;20037;-55
2022/04/16 03:47:58;;;;;;;2.33;2.13;;;1.90;99.90;;;;;;5011152;28;20038;-52
2022/04/16 03:50:25;;;;;;;3.80;2.40;;;1.90;99.90;;;;;;5010757;28;20050;-55
2022/04/16 03:52:52;;;;;;;5.50;2.60;;;1.90;99.90;;;;;;5010695;28;20065;-52
2022/04/16 04:00:50;;;;;;;4.57;2.40;;;1.80;99.90;;;;;;5011386;28;20048;-53
2022/04/16 04:03:16;;;;;;;4.38;2.42;;;1.70;99.90;;;;;;5010506;28;20030;-50
2022/04/16 04:05:45;;;;;;;4.28;2.47;;;1.70;99.90;;;;;;5010551;28;20034;-51
2022/04/16 04:08:11;;;;;;;4.95;2.53;;;1.60;99.90;;;;;;5010780;28;20018;-51
2022/04/16 04:10:37;;;;;;;5.25;2.70;;;1.60;99.90;;;;;;5010368;28;20646;-54
2022/04/16 04:13:04;;;;;;;7.55;2.28;;;1.60;99.90;;;;;;5010570;28;20022;-51
2022/04/16 04:15:29;;;;;;;3.10;2.42;;;1.60;99.90;;;;;;5010742;28;20026;-53
2022/04/16 04:17:56;;;;;;;6.63;2.80;;;1.60;99.90;;;;;;5010749;28;20029;-52
2022/04/16 04:20:23;;;;;;;3.20;2.60;;;1.60;99.90;;;;;;5009030;28;20033;-55
2022/04/16 04:22:49;;;;;;;7.07;2.83;;;1.60;99.90;;;;;;5010447;28;20032;-52
2022/04/16 04:25:14;;;;;;;4.97;2.25;;;1.60;99.90;;;;;;5008994;28;20030;-53
2022/04/16 04:27:40;;;;;;;5.43;2.20;;;1.50;99.90;;;;;;5010319;28;20493;-56
2022/04/16 04:30:06;;;;;;;3.17;2.60;;;1.60;99.90;;;;;;5010225;28;20444;-51
2022/04/16 04:32:32;;;;;;;3.03;2.15;;;1.60;99.90;;;;;;5009420;28;20033;-52
2022/04/16 04:34:57;;;;;;;6.47;2.88;;;1.60;99.90;;;;;;5008004;28;20554;-54
2022/04/16 04:37:23;;;;;;;2.40;1.80;;;1.50;99.90;;;;;;5010145;28;20104;-53
2022/04/16 04:39:49;;;;;;;4.47;2.38;;;1.50;99.90;;;;;;5010232;28;20456;-51
2022/04/16 04:42:31;;;;;;;3.47;2.60;;;1.40;99.90;;;;;;5009840;28;20022;-55
2022/04/16 04:44:58;;;;;;;3.80;2.55;;;1.40;99.90;;;;;;5008835;28;20033;-56
2022/04/16 04:47:24;;;;;;;4.30;2.58;;;1.30;99.90;;;;;;5009681;28;20104;-53
2022/04/16 04:49:50;;;;;;;4.30;2.53;;;1.30;99.90;;;;;;5009437;28;20493;-54
2022/04/16 04:52:29;;;;;;;4.80;3.03;;;1.30;99.90;;;;;;5008378;28;20031;-50
2022/04/16 04:54:59;;;;;;;3.03;2.72;;;1.30;99.90;;;;;;5010235;28;20101;-53
2022/04/16 04:57:25;;;;;;;4.05;2.70;;;1.30;99.90;;;;;;5009717;28;20041;-53
2022/04/16 04:59:51;;;;;;;5.15;3.13;;;1.30;99.90;;;;;;5007763;28;20044;-53
2022/04/16 05:02:17;;;;;;;6.05;3.45;;;1.30;99.90;;;;;;5008340;28;20728;-54
2022/04/16 05:04:43;;;;;;;2.65;2.40;;;1.30;99.90;;;;;;5009866;28;20509;-51
2022/04/16 05:07:09;;;;;;;5.13;3.00;;;1.30;99.90;;;;;;5009972;28;20603;-51
2022/04/16 05:09:35;;;;;;;3.67;2.42;;;1.30;99.90;;;;;;5009339;28;20030;-56
2022/04/16 05:12:01;;;;;;;4.13;2.45;;;1.40;99.90;;;;;;5008693;28;20133;-53
2022/04/16 05:14:26;;;;;;;2.47;2.17;;;1.40;99.90;;;;;;5009903;28;20068;-54
2022/04/16 05:16:52;;;;;;;7.13;2.55;;;1.30;99.90;;;;;;5009608;28;20056;-54
2022/04/16 05:19:17;;;;;;;5.20;2.60;;;1.40;99.90;;;;;;5007287;28;20524;-54
2022/04/16 05:21:43;;;;;;;4.10;2.72;;;1.40;99.90;;;;;;5009194;28;20481;-51
2022/04/16 05:24:09;;;;;;;3.67;2.72;;;1.40;99.90;;;;;;5008416;28;20048;-50
2022/04/16 05:26:37;;;;;;;3.05;2.30;;;1.40;99.90;;;;;;5008868;28;20026;-53
2022/04/16 05:29:02;;;;;;;4.03;2.60;;;1.40;99.90;;;;;;5009724;28;20113;-52
2022/04/16 05:31:30;;;;;;;3.55;2.53;;;1.50;99.90;;;;;;5009581;28;20108;-52
2022/04/16 05:36:42;;;;;;;4.93;3.60;;;1.50;99.90;;;;;;5009873;28;20072;-52
2022/04/16 05:39:08;;;;;;;7.03;3.72;;;1.60;99.90;;;;;;5009209;28;20496;-52
2022/04/16 05:41:33;;;;;;;5.38;3.35;;;1.70;99.90;;;;;;5008136;28;20504;-52
2022/04/16 05:44:00;;;;;;;3.70;2.80;;;1.80;99.90;;;;;;5009658;28;20022;-51
2022/04/16 05:46:25;;;;;;;4.30;3.65;;;1.90;99.90;;;;;;5009675;28;20022;-53
2022/04/16 05:48:51;;;;;;;4.18;3.15;;;1.90;99.90;;;;;;5009764;28;20061;-50
2022/04/16 05:51:17;;;;;;;4.65;3.17;;;2.10;99.90;;;;;;5009736;28;20034;-56
2022/04/16 05:53:45;;;;;;;6.43;2.90;;;2.20;99.90;;;;;;5009581;28;20026;-53
2022/04/16 05:56:11;;;;;;;3.53;3.17;;;2.40;99.90;;;;;;5009603;28;20539;-55
2022/04/16 05:58:37;;;;;;;4.80;3.17;;;2.40;99.90;;;;;;5009496;28;20515;-55
2022/04/16 06:01:03;;;;;;;7.00;4.00;;;2.60;99.90;;;;;;5008563;28;20061;-52
2022/04/16 06:03:29;;;;;;;4.90;3.30;;;2.70;99.90;;;;;;5009260;28;20026;-54
2022/04/16 06:05:56;;;;;;;4.45;2.83;;;2.80;99.90;;;;;;5009423;28;20088;-52
2022/04/16 06:08:21;;;;;;;3.60;2.65;;;3.00;99.90;;;;;;5007107;28;20053;-53
2022/04/16 06:10:47;;;;;;;4.75;2.47;;;3.00;99.90;;;;;;5008738;28;20408;-54
2022/04/16 06:13:13;;;;;;;2.95;2.70;;;3.00;99.90;;;;;;5012428;28;20739;-53
2022/04/16 06:15:42;;;;;;;3.70;2.33;;;3.10;99.90;;;;;;5013343;28;20466;-53
2022/04/16 06:18:09;;;;;;;6.25;3.00;;;3.20;99.90;;;;;;5012844;28;20104;-53
2022/04/16 06:20:35;;;;;;;5.30;3.28;;;3.30;99.90;;;;;;5013295;28;20403;-51
2022/04/16 06:23:01;;;;;;;3.58;2.55;;;3.40;99.90;;;;;;5013082;28;20030;-55
2022/04/16 06:25:27;;;;;;;3.10;2.45;;;3.50;99.90;;;;;;5012423;28;20034;-52
2022/04/16 06:27:53;;;;;;;4.45;2.08;;;3.60;99.90;;;;;;5012965;28;20105;-53
2022/04/16 06:30:19;;;;;;;3.05;2.00;;;3.70;99.90;;;;;;5011440;28;20108;-52
2022/04/16 06:32:44;;;;;;;4.38;1.90;;;3.80;99.90;;;;;;5012758;28;20029;-55
2022/04/16 06:35:12;;;;;;;5.65;2.17;;;3.90;99.90;;;;;;5012620;28;20113;-57
2022/04/16 06:37:38;;;;;;;1.83;1.60;;;4.00;99.90;;;;;;5012690;28;20424;-56
2022/04/16 06:40:06;;;;;;;2.75;2.10;;;4.20;99.90;;;;;;5011524;28;20033;-54
2022/04/16 06:42:32;;;;;;;5.13;2.10;;;4.30;99.90;;;;;;5012271;28;20060;-55
2022/04/16 06:44:57;;;;;;;2.08;1.60;;;4.40;99.90;;;;;;5012677;28;20061;-50
2022/04/16 06:47:24;;;;;;;6.03;2.00;;;4.50;99.90;;;;;;5012260;28;20033;-50
2022/04/16 06:49:50;;;;;;;1.83;1.50;;;4.70;99.90;;;;;;5012756;28;20025;-51
2022/04/16 06:52:18;;;;;;;2.15;1.63;;;4.90;99.90;;;;;;5012626;28;20156;-53
2022/04/16 06:54:45;;;;;;;2.65;1.88;;;5.10;99.90;;;;;;5012309;28;20033;-57
2022/04/16 06:57:10;;;;;;;3.75;1.70;;;5.20;99.90;;;;;;5012630;28;20034;-51
2022/04/16 06:59:37;;;;;;;1.67;1.45;;;5.50;99.90;;;;;;5012166;28;20022;-53
2022/04/16 07:02:04;;;;;;;1.88;1.67;;;5.70;99.90;;;;;;5010879;28;20025;-54
2022/04/16 07:04:30;;;;;;;1.80;1.38;;;5.90;99.90;;;;;;5012092;28;20395;-55
2022/04/16 07:06:55;;;;;;;1.75;1.58;;;6.10;99.90;;;;;;5010409;28;20026;-52
2022/04/16 07:09:21;;;;;;;1.92;1.75;;;6.30;99.90;;;;;;5004897;28;20022;-50
2022/04/16 07:11:46;;;;;;;2.25;1.65;;;6.50;99.90;;;;;;4992155;28;20022;-52
2022/04/16 07:14:12;;;;;;;3.15;1.83;;;6.60;99.90;;;;;;4992588;28;20050;-53
2022/04/16 07:16:37;;;;;;;2.80;1.60;;;6.80;99.90;;;;;;4999600;28;20030;-55
2022/04/16 07:19:03;;;;;;;1.23;1.10;;;7.00;99.90;;;;;;5012115;28;20033;-55
2022/04/16 07:21:28;;;;;;;4.43;1.15;;;7.20;99.90;;;;;;5010535;28;20022;-55
2022/04/16 07:23:54;;;;;;;1.77;1.25;;;7.40;99.90;;;;;;5008389;28;20492;-51
2022/04/16 07:26:19;;;;;;;1.35;1.25;;;7.60;99.90;;;;;;5005899;28;20061;-55
2022/04/16 07:28:45;;;;;;;1.77;1.35;;;7.80;99.90;;;;;;5011910;28;20116;-54
2022/04/16 07:31:10;;;;;;;3.33;1.33;;;7.90;99.90;;;;;;5010581;28;20036;-54
2022/04/16 07:33:37;;;;;;;1.30;1.00;;;8.10;99.90;;;;;;5010424;28;20037;-52
2022/04/16 07:36:03;;;;;;;3.45;1.10;;;8.30;99.90;;;;;;5011255;28;20073;-51
2022/04/16 07:38:28;;;;;;;2.13;0.82;;;8.40;99.90;;;;;;5011347;28;20057;-53
2022/04/16 07:40:54;;;;;;;1.67;0.90;;;8.60;99.90;;;;;;5011465;28;20034;-53
2022/04/16 07:43:20;;;;;;;1.48;0.88;;;8.80;99.90;;;;;;5011112;28;20037;-53
2022/04/16 07:45:45;;;;;;;1.02;0.77;;;9.10;99.90;;;;;;5011034;28;20030;-55
2022/04/16 07:48:11;;;;;;;5.10;1.10;;;9.30;99.90;;;;;;5011212;28;20030;-54
2022/04/16 07:50:36;;;;;;;0.88;0.80;;;9.50;99.90;;;;;;5011250;28;20021;-54
2022/04/16 07:53:04;;;;;;;3.90;1.58;;;9.60;99.90;;;;;;5011170;28;20396;-52
2022/04/16 07:55:31;;;;;;;2.00;1.13;;;9.80;99.90;;;;;;5011420;28;20022;-55
2022/04/16 07:58:00;;;;;;;2.80;1.30;;;9.90;99.90;;;;;;5011394;28;20021;-52
2022/04/16 08:00:26;;;;;;;0.88;0.88;;;10.00;99.90;;;;;;5011070;28;20026;-52
2022/04/16 08:02:51;;;;;;;1.30;0.95;;;10.00;99.90;;;;;;5011329;28;20036;-55
2022/04/16 08:05:17;;;;;;;1.88;0.85;;;10.00;99.90;;;;;;5011390;28;20373;-53
2022/04/16 08:07:44;;;;;;;0.85;0.80;;;10.00;99.90;;;;;;5010109;28;20037;-53
2022/04/16 08:10:10;;;;;;;2.03;1.10;;;10.10;99.90;;;;;;5011182;28;20427;-52
2022/04/16 08:12:36;;;;;;;1.60;1.10;;;10.30;99.90;;;;;;5010527;28;20033;-56
2022/04/16 08:15:03;;;;;;;2.05;1.08;;;10.40;99.90;;;;;;5010731;28;20101;-54
2022/04/16 08:17:29;;;;;;;1.30;0.77;;;10.60;99.90;;;;;;5010907;28;20584;-55
2022/04/16 08:19:54;;;;;;;2.53;1.00;;;10.70;99.80;;;;;;5010482;28;20149;-52
2022/04/16 08:22:21;;;;;;;1.02;0.90;;;10.80;99.90;;;;;;5010887;28;20025;-55
2022/04/16 08:27:36;;;;;;;1.15;0.85;;;10.90;96.70;;;;;;5010578;28;20032;-53
2022/04/16 08:30:03;;;;;;;1.08;0.57;;;11.00;96.60;;;;;;5009888;28;20037;-57
2022/04/16 08:32:28;;;;;;;1.13;0.57;;;10.80;94.40;;;;;;5010078;28;20488;-53
2022/04/16 08:34:54;;;;;;;0.95;0.65;;;10.70;96.60;;;;;;5009863;28;20061;-56
2022/04/16 08:37:19;;;;;;;1.30;0.75;;;11.00;96.50;;;;;;5010166;28;20391;-52
2022/04/16 08:39:45;;;;;;;2.25;1.25;;;11.10;94.20;;;;;;5010454;28;20041;-52
2022/04/16 08:42:11;;;;;;;1.60;1.20;;;11.20;92.60;;;;;;5009926;28;20022;-54
2022/04/16 08:44:39;;;;;;;1.42;0.98;;;11.30;92.40;;;;;;5010656;28;20026;-51
2022/04/16 08:47:06;;;;;;;0.93;0.68;;;11.50;95.10;;;;;;5009161;28;20029;-56
2022/04/16 08:49:33;;;;;;;1.48;0.70;;;11.70;93.20;;;;;;5010038;28;20022;-56
2022/04/16 08:51:59;;;;;;;1.85;0.60;;;11.70;88.90;;;;;;5009480;28;20472;-55
2022/04/16 08:54:25;;;;;;;0.70;0.70;;;11.70;90.30;;;;;;5010523;28;20029;-57
2022/04/16 08:56:51;;;;;;;1.15;0.55;;;11.80;90.90;;;;;;5010048;28;20025;-53
2022/04/16 08:59:16;;;;;;;0.93;0.60;;;11.90;90.20;;;;;;5009845;28;20041;-56
2022/04/16 09:01:42;;;;;;;1.05;0.70;;;12.00;91.50;;;;;;5009495;28;20026;-54
2022/04/16 09:04:19;;;;;;;4.53;0.70;;;12.00;87.90;;;;;;5010263;28;20030;-55
2022/04/16 09:06:55;;;;;;;1.25;0.70;;;12.00;86.90;;;;;;5009696;28;20029;-56
2022/04/16 09:09:20;;;;;;;;;;;12.00;90.00;;;;;;5009092;28;20388;-50
2022/04/16 09:11:50;;;;;;;2.00;0.70;;;12.00;87.70;;;;;;5009386;28;19906;-57
2022/04/16 09:14:15;;;;;;;0.70;0.70;;;12.10;87.60;;;;;;5009435;28;20038;-55
2022/04/16 09:16:42;;;;;;;1.48;1.20;;;12.00;84.50;;;;;;5009964;28;20029;-56
2022/04/16 09:19:12;;;;;;;2.10;0.82;;;12.10;84.70;;;;;;5009163;28;20492;-55
2022/04/16 09:21:39;;;;;;;1.17;0.88;;;12.20;87.40;;;;;;5007560;28;20080;-55
2022/04/16 09:24:05;;;;;;;1.10;0.80;;;12.30;84.50;;;;;;5009288;28;20104;-57
2022/04/16 09:26:35;;;;;;;1.13;0.98;;;12.30;84.50;;;;;;5001315;28;20109;-55
2022/04/16 09:29:10;;;;;;;1.52;0.98;;;12.40;87.40;;;;;;5009706;28;20025;-52
2022/04/16 09:31:40;;;;;;;1.50;1.33;;;12.60;91.50;;;;;;4990143;28;20492;-57
2022/04/16 09:34:07;;;;;;;3.08;1.23;;;13.00;90.20;;;;;;4991780;28;20038;-54
2022/04/16 09:36:39;;;;;;;1.33;1.20;;;12.90;81.60;;;;;;5009584;28;20030;-55
2022/04/16 09:39:07;;;;;;;1.50;1.40;;;12.70;83.60;;;;;;5009594;28;20050;-59
2022/04/16 09:41:40;;;;;;;1.65;0.88;;;12.80;87.30;;;;;;4989869;28;20038;-54
2022/04/16 09:44:20;;;;;;;1.13;0.90;;;12.50;83.60;;;;;;4989697;28;20042;-52
2022/04/16 09:46:47;;;;;;;2.55;0.90;;;12.70;81.50;;;;;;4992060;28;20046;-57
2022/04/16 09:49:15;;;;;;;2.65;0.75;;;12.50;79.60;;;;;;5013852;28;20030;-57
2022/04/16 09:51:43;;;;;;;1.77;0.90;;;12.60;81.30;;;;;;5013079;28;20037;-58
2022/04/16 09:54:10;;;;;;;1.10;0.93;;;12.70;82.00;;;;;;5013845;28;20036;-53
2022/04/16 09:56:37;;;;;;;1.35;0.85;;;12.80;79.40;;;;;;5013680;28;20105;-58
2022/04/16 09:59:08;;;;;;;1.92;1.20;;;12.80;77.70;;;;;;5013530;28;20033;-56
2022/04/16 10:01:38;;;;;;;1.63;1.25;;;12.70;75.80;;;;;;5013501;28;20036;-54
2022/04/16 10:04:03;;;;;;;1.77;1.42;;;12.70;75.20;;;;;;5013785;28;20045;-58
2022/04/16 10:06:30;;;;;;;3.78;2.53;;;12.80;77.30;;;;;;5013300;28;20022;-53
2022/04/16 10:09:13;;;;;;;4.05;1.70;;;12.90;75.20;;;;;;5013368;28;20022;-54
2022/04/16 10:14:33;;;;;;;;;;;12.90;81.10;;;;;;5013734;28;20037;-55
2022/04/16 10:17:15;;;;;;;1.35;1.25;;;12.80;73.70;;;;;;5012599;28;19905;-55
2022/04/16 10:19:48;;;;;;;1.20;1.10;;;12.90;81.60;;;;;;5012934;28;20022;-54
2022/04/16 10:22:25;;;;;;;2.00;1.30;;;12.90;73.80;;;;;;5013178;28;20397;-56
2022/04/16 10:24:57;;;;;;;1.85;1.30;;;13.00;74.90;;;;;;5011435;28;20717;-55
2022/04/16 10:27:30;;;;;;;2.58;0.90;;;13.20;77.90;;;;;;5009454;28;20025;-54
2022/04/16 10:30:00;;;;;;;4.65;2.60;;;13.20;72.50;;;;;;5013107;28;20022;-53
2022/04/16 10:32:38;;;;;;;1.00;0.90;;;13.20;73.10;;;;;;5012679;28;20036;-57
2022/04/16 10:35:05;;;;;;;1.40;1.13;;;13.30;76.30;;;;;;5013185;28;20029;-53
2022/04/16 10:37:38;;;;;;;1.00;0.90;;;13.20;72.30;;;;;;5012744;28;20033;-53
2022/04/16 10:40:16;;;;;;;2.47;1.00;;;13.30;73.60;;;;;;5013467;28;20392;-52
2022/04/16 10:42:48;;;;;;;1.00;0.88;;;13.30;71.10;;;;;;5012762;28;20074;-54
2022/04/16 10:45:14;;;;;;;1.90;0.90;;;13.30;69.40;;;;;;5011367;28;20030;-58
2022/04/16 10:47:41;;;;;;;1.10;1.00;;;13.00;70.50;;;;;;5012688;28;20148;-56
2022/04/16 10:50:15;;;;;;;1.45;1.17;;;12.80;74.90;;;;;;5012810;28;20026;-56
2022/04/16 10:52:55;;;;;;;1.55;1.00;;;12.80;68.80;;;;;;5012437;28;20049;-57
2022/04/16 10:55:25;;;;;;;1.17;1.10;;;12.80;72.70;;;;;;5012619;28;20028;-56
2022/04/16 10:58:05;;;;;;;0.98;0.98;;;12.90;73.60;;;;;;5012470;28;20087;-53
2022/04/16 11:00:40;;;;;;;3.13;1.10;;;13.10;73.20;;;;;;5012509;28;20041;-57
2022/04/16 11:03:17;;;;;;;2.35;0.90;;;13.30;76.10;;;;;;5012253;28;20145;-57
2022/04/16 11:05:43;;;;;;;2.80;1.42;;;13.40;71.10;;;;;;5011789;28;20034;-52
2022/04/16 11:08:12;;;;;;;1.13;1.02;;;13.50;74.20;;;;;;5012145;28;20076;-54
2022/04/16 11:10:39;;;;;;;1.33;0.95;;;13.50;73.80;;;;;;5012092;28;20034;-55
2022/04/16 11:13:05;;;;;;;1.25;1.15;;;13.20;67.70;;;;;;5012107;28;20036;-57
2022/04/16 11:15:30;;;;;;;0.82;0.82;;;12.80;70.90;;;;;;5011417;28;20061;-54
2022/04/16 11:17:58;;;;;;;1.27;1.10;;;12.50;70.90;;;;;;5010331;28;20053;-53
2022/04/16 11:20:25;;;;;;;1.63;1.38;;;12.70;74.30;;;;;;5004507;28;20080;-52
2022/04/16 11:22:51;;;;;;;1.50;1.10;;;12.90;74.10;;;;;;4997230;28;20021;-58
2022/04/16 11:25:20;;;;;;;1.17;1.05;;;13.10;74.20;;;;;;5011956;28;20507;-57
2022/04/16 11:36:08;;;;;;;1.67;1.00;;;13.60;71.30;;;;;;4998406;28;20157;-54
2022/04/16 11:38:35;;;;;;;1.65;0.98;;;13.50;72.10;;;;;;5010829;28;20298;-54
2022/04/16 11:41:04;;;;;;;2.55;1.00;;;13.40;67.90;;;;;;5011335;28;20037;-57
2022/04/16 11:43:30;;;;;;;1.05;0.95;;;13.50;69.20;;;;;;5011393;28;20029;-53
2022/04/16 11:45:57;;;;;;;2.72;1.02;;;13.50;70.80;;;;;;5011037;28;20029;-54
2022/04/16 11:48:23;;;;;;;1.33;1.05;;;13.60;70.00;;;;;;5011548;28;20101;-54
2022/04/16 11:50:49;;;;;;;0.82;0.80;;;13.70;70.80;;;;;;5010930;28;20026;-53
2022/04/16 11:53:15;;;;;;;2.45;0.95;;;13.70;68.50;;;;;;5011399;28;20640;-53
2022/04/16 11:55:47;;;;;;;0.93;0.75;;;13.70;66.20;;;;;;5011315;28;20157;-57
2022/04/16 11:58:13;;;;;;;1.60;0.90;;;13.90;70.60;;;;;;5010049;28;20028;-54
2022/04/16 12:00:55;;;;;;;1.92;0.90;;;13.90;69.00;;;;;;5008874;28;20038;-56
2022/04/16 12:03:21;;;;;;;1.10;1.00;;;14.10;70.50;;;;;;4999717;28;20093;-52
2022/04/16 12:05:48;;;;;;;1.25;1.08;;;14.20;71.30;;;;;;5007951;28;20055;-56
2022/04/16 12:08:17;;;;;;;1.60;1.30;;;14.30;70.70;;;;;;5010359;28;20476;-55
2022/04/16 12:10:47;;;;;;;1.23;0.90;;;14.30;69.20;;;;;;5008924;28;20080;-56
2022/04/16 12:13:14;;;;;;;2.30;1.08;;;14.30;71.30;;;;;;5010143;28;20050;-52
2022/04/16 12:15:44;;;;;;;1.35;1.02;;;14.30;71.60;;;;;;5009533;28;20166;-58
2022/04/16 12:18:15;;;;;;;1.10;1.00;;;14.20;70.90;;;;;;5010588;28;20033;-56
2022/04/16 12:20:47;;;;;;;1.70;1.25;;;14.10;69.80;;;;;;5010790;28;20032;-57
2022/04/16 12:23:23;;;;;;;1.30;1.20;;;14.20;71.60;;;;;;5009499;28;20029;-57
2022/04/16 12:25:50;;;;;;;2.00;1.38;;;14.30;68.20;;;;;;5010030;28;20036;-56
2022/04/16 12:28:15;;;;;;;2.03;1.40;;;14.10;70.80;;;;;;5008797;28;20080;-58
2022/04/16 12:30:49;;;;;;;2.10;1.90;;;14.20;73.20;;;;;;5009887;28;20030;-56
2022/04/16 12:33:15;;;;;;;3.42;1.67;;;14.30;71.30;;;;;;5024198;22;20038;-57
2022/04/16 12:35:47;;;;;;;1.80;1.70;;;14.40;70.60;;;;;;5003553;28;20033;-58
2022/04/16 12:38:15;;;;;;;1.50;1.40;;;14.50;74.40;;;;;;4991207;28;20022;-53
2022/04/16 12:40:41;;;;;;;2.20;1.80;;;14.60;68.70;;;;;;4990736;28;20109;-55
2022/04/16 12:43:07;;;;;;;1.27;1.17;;;14.50;67.80;;;;;;4991894;28;20293;-54
2022/04/16 12:45:33;;;;;;;1.52;1.42;;;14.40;65.80;;;;;;4990760;28;20086;-59
2022/04/16 12:48:00;;;;;;;1.73;1.58;;;14.20;67.90;;;;;;4990338;28;20050;-59
2022/04/16 12:50:26;;;;;;;2.08;1.40;;;14.20;69.90;;;;;;4990960;28;20506;-58
2022/04/16 12:52:52;;;;;;;1.25;1.15;;;14.30;69.00;;;;;;4990148;28;20076;-58
2022/04/16 12:55:18;;;;;;;2.00;1.83;;;14.30;68.50;;;;;;4990056;28;20523;-57
2022/04/16 12:57:44;;;;;;;2.65;1.35;;;14.20;69.10;;;;;;4990025;28;20033;-54
2022/04/16 13:00:14;;;;;;;1.70;1.60;;;14.10;71.80;;;;;;4990388;28;20034;-60
2022/04/16 13:02:43;;;;;;;1.50;1.40;;;14.20;73.40;;;;;;4995924;28;20042;-60
2022/04/16 13:05:10;;;;;;;1.92;1.67;;;14.30;72.50;;;;;;5009624;28;20029;-56
2022/04/16 13:07:36;;;;;;;2.95;2.00;;;14.40;72.10;;;;;;5002505;28;20037;-57
2022/04/16 13:10:03;;;;;;;2.63;1.55;;;14.40;69.50;;;;;;4990718;28;20389;-56
2022/04/16 13:12:29;;;;;;;3.25;2.28;;;14.30;71.10;;;;;;4989962;28;20026;-60
2022/04/16 13:14:55;;;;;;;1.80;1.33;;;14.30;70.90;;;;;;4990315;28;20031;-58
2022/04/16 13:17:20;;;;;;;3.17;2.42;;;14.30;74.30;;;;;;4989137;28;20053;-57
2022/04/16 13:19:46;;;;;;;2.40;2.13;;;14.30;71.50;;;;;;4989590;28;20041;-55
2022/04/16 13:22:12;;;;;;;1.50;1.30;;;14.30;71.90;;;;;;4988969;28;20038;-59
2022/04/16 13:24:38;;;;;;;1.98;1.48;;;14.30;72.00;;;;;;4990151;28;20030;-59
2022/04/16 13:27:06;;;;;;;2.70;1.42;;;14.40;72.40;;;;;;4990770;28;20073;-58
2022/04/16 13:29:32;;;;;;;1.55;1.30;;;14.60;71.80;;;;;;4995134;28;20049;-59
2022/04/16 13:31:59;;;;;;;1.23;1.10;;;14.60;72.10;;;;;;5002116;28;20030;-58
2022/04/16 13:34:24;;;;;;;1.40;1.30;;;14.50;71.60;;;;;;4997208;28;20037;-58
2022/04/16 13:36:50;;;;;;;2.00;1.80;;;14.40;72.50;;;;;;4989837;28;20097;-59
2022/04/16 13:42:00;;;;;;;1.50;1.40;;;14.40;73.50;;;;;;5000186;28;20089;-59
2022/04/16 13:44:26;;;;;;;2.83;1.70;;;14.50;72.60;;;;;;4989655;28;20038;-58
2022/04/16 13:46:51;;;;;;;1.42;1.33;;;14.60;71.90;;;;;;4989278;28;20444;-59